Relevés horaires Bierset (Belgique)


Relevés horaires à Bierset - Lundi 18 Déc. 2023
Heure UTC1 Température [°C] Vent [km/h] Hum. [%] Pres.4 [hPa] Visi. [Km] Nébu. [octa] Préc.5 [mm] Cond.
2m. Res. Ros. Dir.2 Vit. Moy. Raf.3
23:00 1.5 -2.5 0.5 SSO 14.8 14.8 20.4 93 1029.8(-1.2/3h) 7 8/8 -- --
22:00 1.3 -2.4 -- S 13.0 14.8 20.4 -- 1030.1(-1.6/3h) 30 7/8 -- --
21:00 0.9 -2.9 -0.5 S 13.0 14.8 20.4 90 1030.7(-1.3/3h) 30 7/8 -- --
20:00 0.9 -2.9 -0.6 S 13.0 13.0 18.5 90 1031.1(-1.5/3h) 30 7/8 -- --
19:00 0.9 -2.9 -0.7 S 13.0 13.0 20.4 89 1031.7(-1.0/3h) 30 7/8 -- --
18:00 1.0 -2.8 -0.9 SSO 13.0 13.0 20.4 87 1032.1(-0.6/3h) 30 7/8 0/12h
--
17:00 1.5 -1.8 -0.4 SSO 11.1 11.1 16.7 87 1032.5(-0.7/3h) 30 6/8 -- --
16:00 1.6 -0.7 -0.1 SO 7.4 9.3 13.0 88 1032.6(-1.3/3h) 30 6/8 -- --
15:00 1.8 -1 -0.4 SSO 9.3 11.1 14.8 85 1032.6(-1.6/3h) 30 7/8 -- --
14:00 1.9 -0.9 -0.3 SSO 9.3 9.3 14.8 85 1033.2(-1.5/3h) 20 7/8 -- --
13:00 2.0 -0.7 0.1 SSO 9.3 11.1 14.8 87 1033.9(-1.1/3h) 20 7/8 -- --
12:00 1.7 -1.1 0.1 SSO 9.3 9.3 14.8 89 1034.3(-1.2/3h) 12 7/8 0/6h
--
11:00 1.7 -1.1 0.4 SSO 9.3 9.3 14.8 91 1034.7(-0.7/3h) 12 7/8 -- --
10:00 1.5 -1.3 0.2 SSO 9.3 9.3 14.8 91 1035.1(0.1/3h) 7 7/8 -- --
09:00 1.5 -0.8 0.5 SO 7.4 9.3 11.1 93 1035.6(0.9/3h) 6 7/8 -- --
08:00 1.3 -1.6 0.5 OSO 9.3 9.3 11.1 94 1035.5(1.1/3h) 6 7/8 -- --
07:00 1.8 -0.4 0.8 OSO 7.4 7.4 11.1 93 1034.9(-0.2/3h) 30 7/8 -- --
06:00 2.0 2.0 0.1 SSO 3.7 11.1 16.7 87 1034.7(-0.4/3h) 30 5/8 0/12h
--
05:00 2.5 0.4 0.5 SSO 7.4 7.4 16.7 87 1034.3(-0.7/3h) 30 0/8 -- --
04:00 2.9 0.8 0.8 S 7.4 7.4 13.0 86 1034.7(-0.3/3h) 30 0/8 -- --
03:00 3.1 1.7 0.8 S 5.6 11.1 16.7 85 1034.9(-0.3/3h) 30 0/8 -- --
02:00 3.8 1.4 0.9 S 9.3 9.3 14.8 81 1034.9(-0.5/3h) 30 0/8 -- --
01:00 4.0 2.1 0.5 S 7.4 11.1 14.8 78 1034.9(-0.6/3h) 30 0/8 -- --
00:00 4.8 2.6 -- S 9.3 13.0 18.5 -- 1035(-0.2/3h) 30 0/8 0/6h
0/24h
--

1 Coordinated Universal Time. Actuellement il est 03:00 locale et 01:00 UTC.

2 Le vent souffle depuis la direction indiquée vers la direction oposée.

3 Les rafales max. sont disponible 40 min après l'heure du relevé.

4 Pour les stations d'altitude (plus de 600m) le géopotentiel du niveau le plus proche de la pression obligatoire est indiqué.

5 Les stations disposant d'un diffuseur peuvent indiquer "trace". Cela signifie que des précipitations ont touchés le sol mais que la quantité est inférieure à 0.1 mm.

Récapitulatif de la journée
Température [°C] Vent [km/h] Ensoleillement4 [h] Precipitations totale5 [mm] Pression [Hpa]
Min1 Max.2 Moy.3 Max. Min Max.
1.8 2.2 10.8 20.4 0 h 0 min 0 1029.8 1035.6

1 Température minimale relevée entre 18:00 UTC la veille et 18:00 UTC le jour donné.

2 Température maximale relevée entre 06:00 UTC le jour donné et 06:00 UTC le lendemain.

3 Vent moyen de la journée basé sur les relevés horaires.

4 Ensoleillement en heures relevé entre 06:00 UTC la veille et 06:00 UTC le jour donné.

5 Précipitations totales tombées entre 06:00 UTC la jour donné et 06:00 UTC le lendemain.

Graphiques horaires